Time;durP1;ratioP1;P1;durP2;ratioP2;P2;SDS_P1;SDS_P2;PMS_P1;PMS_P2;Temp;Humidity;BMP_temperature;BMP_pressure;BME280_temperature;BME280_humidity;BME280_pressure;Samples;Min_cycle;Max_cycle;Signal;HPM_P1;HPM_P2
2021/08/06 00:02:16;0.00;0.00;0.62;0.00;0.00;0.62;3.73;3.40;;;27.10;36.30;;;;;;2253110;61;20644;-58
2021/08/06 00:04:43;0.00;0.00;0.62;0.00;0.00;0.62;3.40;3.07;;;27.10;36.40;;;;;;2253072;61;20693;-54
2021/08/06 00:07:11;0.00;0.00;0.62;0.00;0.00;0.62;4.10;3.77;;;27.10;36.40;;;;;;2253439;61;20356;-55
2021/08/06 00:09:40;0.00;0.00;0.62;0.00;0.00;0.62;3.77;3.47;;;27.10;36.40;;;;;;2252974;61;20380;-55
2021/08/06 00:12:08;0.00;0.00;0.62;0.00;0.00;0.62;3.83;3.53;;;27.00;36.30;;;;;;2253098;61;20725;-58
2021/08/06 00:14:35;0.00;0.00;0.62;0.00;0.00;0.62;3.57;3.27;;;27.00;36.30;;;;;;2253525;61;20697;-53
2021/08/06 00:17:03;0.00;0.00;0.62;0.00;0.00;0.62;4.37;3.07;;;27.00;36.40;;;;;;2255870;61;20349;-57
2021/08/06 00:19:31;0.00;0.00;0.62;0.00;0.00;0.62;3.00;2.80;;;27.00;36.30;;;;;;2252959;61;20480;-56
2021/08/06 00:21:59;0.00;0.00;0.62;0.00;0.00;0.62;3.87;3.57;;;27.00;36.30;;;;;;2253414;61;20369;-54
2021/08/06 00:24:26;0.00;0.00;0.62;0.00;0.00;0.62;3.83;3.53;;;27.00;36.40;;;;;;2253156;61;20384;-55
2021/08/06 00:26:53;0.00;0.00;0.62;0.00;0.00;0.62;4.50;4.10;;;27.00;36.30;;;;;;2253071;61;20364;-57
2021/08/06 00:29:21;0.00;0.00;0.62;0.00;0.00;0.62;3.87;3.57;;;27.00;36.30;;;;;;2253318;61;20582;-54
2021/08/06 00:31:47;0.00;0.00;0.62;0.00;0.00;0.62;3.67;3.37;;;27.00;36.30;;;;;;2255799;61;20393;-56
2021/08/06 00:34:15;0.00;0.00;0.62;0.00;0.00;0.62;3.50;3.20;;;27.00;36.40;;;;;;2255946;61;20361;-54
2021/08/06 00:36:43;0.00;0.00;0.62;0.00;0.00;0.62;4.20;3.80;;;26.90;36.40;;;;;;2256194;61;20365;-55
2021/08/06 00:39:13;0.00;0.00;0.62;0.00;0.00;0.62;4.37;3.90;;;26.90;36.40;;;;;;2255726;61;20359;-53
2021/08/06 00:41:40;0.00;0.00;0.62;0.00;0.00;0.62;4.30;3.80;;;26.90;36.30;;;;;;2253022;61;20380;-54
2021/08/06 00:44:08;0.00;0.00;0.62;0.00;0.00;0.62;3.93;3.63;;;26.90;36.30;;;;;;2256132;61;20357;-55
2021/08/06 00:46:35;0.00;0.00;0.62;0.00;0.00;0.62;3.47;3.17;;;26.90;36.30;;;;;;2255856;61;20361;-56
2021/08/06 00:49:03;0.00;0.00;0.62;0.00;0.00;0.62;3.80;3.50;;;26.90;36.30;;;;;;2256480;61;20725;-57
2021/08/06 00:51:33;0.00;0.00;0.62;0.00;0.00;0.62;3.60;3.30;;;26.80;36.30;;;;;;2256714;61;20385;-53
2021/08/06 00:54:03;0.00;0.00;0.62;0.00;0.00;0.62;3.90;3.60;;;26.80;36.30;;;;;;2256592;61;20399;-58
2021/08/06 00:56:41;0.00;0.00;0.62;0.00;0.00;0.62;3.80;3.50;;;26.80;36.30;;;;;;2256598;61;20388;-57
2021/08/06 00:59:11;0.00;0.00;0.62;0.00;0.00;0.62;4.40;3.80;;;26.80;36.30;;;;;;2256725;61;20359;-57
2021/08/06 01:01:46;0.00;0.00;0.62;0.00;0.00;0.62;4.20;3.90;;;26.80;36.30;;;;;;2256552;61;20459;-56
2021/08/06 01:04:23;0.00;0.00;0.62;0.00;0.00;0.62;4.00;3.70;;;26.80;36.30;;;;;;2256437;61;20344;-55
2021/08/06 01:06:57;0.00;0.00;0.62;0.00;0.00;0.62;4.23;3.93;;;26.70;36.20;;;;;;2256770;61;20356;-57
2021/08/06 01:09:37;0.00;0.00;0.62;0.00;0.00;0.62;3.63;3.33;;;26.70;36.20;;;;;;2256412;61;20395;-56
2021/08/06 01:12:10;0.00;0.00;0.62;0.00;0.00;0.62;4.33;4.00;;;26.70;36.30;;;;;;2256514;61;20384;-57
2021/08/06 01:14:48;0.00;0.00;0.62;0.00;0.00;0.62;5.07;3.47;;;26.70;36.30;;;;;;2256849;61;20356;-55
2021/08/06 01:17:22;0.00;0.00;0.62;0.00;0.00;0.62;4.00;3.60;;;26.70;36.40;;;;;;2256522;61;20697;-55
2021/08/06 01:19:58;0.00;0.00;0.62;0.00;0.00;0.62;3.93;3.63;;;26.70;36.50;;;;;;2256298;61;20396;-56
2021/08/06 01:22:37;0.00;0.00;0.62;0.00;0.00;0.62;4.20;3.80;;;26.70;37.10;;;;;;2256844;61;20408;-57
2021/08/06 01:25:12;0.00;0.00;0.62;0.00;0.00;0.62;3.80;3.50;;;26.60;36.40;;;;;;2256426;61;20660;-54
2021/08/06 01:27:50;0.00;0.00;0.62;0.00;0.00;0.62;4.43;3.50;;;26.60;36.40;;;;;;2256423;61;20627;-55
2021/08/06 01:30:20;0.00;0.00;0.62;0.00;0.00;0.62;3.60;3.30;;;26.60;36.40;;;;;;2256612;61;20388;-55
2021/08/06 01:32:48;0.00;0.00;0.62;0.00;0.00;0.62;3.80;3.50;;;26.60;36.50;;;;;;2256686;61;20379;-56
2021/08/06 01:35:19;0.00;0.00;0.62;0.00;0.00;0.62;3.80;3.50;;;26.60;36.40;;;;;;2256373;61;20360;-54
2021/08/06 01:37:46;0.00;0.00;0.62;0.00;0.00;0.62;3.60;3.30;;;26.60;36.40;;;;;;2256586;61;20357;-56
2021/08/06 01:40:14;0.00;0.00;0.62;0.00;0.00;0.62;4.53;4.13;;;26.60;36.40;;;;;;2256559;61;20748;-53
2021/08/06 01:42:57;0.00;0.00;0.62;0.00;0.00;0.62;4.17;3.87;;;26.50;36.30;;;;;;2256383;61;20423;-57
2021/08/06 01:45:33;0.00;0.00;0.62;0.00;0.00;0.62;4.10;3.80;;;26.50;36.30;;;;;;2256285;61;20567;-54
2021/08/06 01:48:08;0.00;0.00;0.62;0.00;0.00;0.62;3.80;3.50;;;26.50;36.30;;;;;;2256350;61;20681;-52
2021/08/06 01:50:42;0.00;0.00;0.62;0.00;0.00;0.62;5.37;3.30;;;26.50;36.30;;;;;;2256573;61;20388;-52
2021/08/06 01:53:17;0.00;0.00;0.62;0.00;0.00;0.62;4.40;4.00;;;26.50;36.30;;;;;;2256407;61;20356;-54
2021/08/06 01:55:59;0.00;0.00;0.62;0.00;0.00;0.62;4.30;3.93;;;26.50;36.40;;;;;;2256416;61;20787;-52
2021/08/06 01:58:36;0.00;0.00;0.62;0.00;0.00;0.62;4.23;3.83;;;26.50;36.40;;;;;;2256584;61;20614;-57
2021/08/06 02:01:06;0.00;0.00;0.62;0.00;0.00;0.62;5.27;4.23;;;26.50;36.40;;;;;;2256365;61;20377;-53
2021/08/06 02:03:32;0.00;0.00;0.62;0.00;0.00;0.62;4.37;3.97;;;26.50;36.40;;;;;;2253394;61;20352;-54
2021/08/06 02:06:17;0.00;0.00;0.62;0.00;0.00;0.62;3.87;3.53;;;26.40;36.30;;;;;;2256583;61;20395;-52
2021/08/06 02:08:47;0.00;0.00;0.62;0.00;0.00;0.62;4.37;3.80;;;26.40;36.30;;;;;;2256233;61;20357;-56
2021/08/06 02:11:18;0.00;0.00;0.62;0.00;0.00;0.62;3.97;3.67;;;26.40;36.30;;;;;;2256186;61;20725;-56
2021/08/06 02:13:46;0.00;0.00;0.62;0.00;0.00;0.62;3.50;3.17;;;26.40;36.40;;;;;;2256721;61;20602;-54
2021/08/06 02:16:15;0.00;0.00;0.62;0.00;0.00;0.62;3.70;3.40;;;26.40;36.40;;;;;;2256277;61;20403;-57
2021/08/06 02:18:42;0.00;0.00;0.62;0.00;0.00;0.62;3.33;3.03;;;26.40;36.40;;;;;;2253409;61;20397;-56
2021/08/06 02:21:17;0.00;0.00;0.62;0.00;0.00;0.62;4.10;3.80;;;26.40;36.40;;;;;;2256574;61;20641;-54
2021/08/06 02:23:51;0.00;0.00;0.62;0.00;0.00;0.62;4.20;3.90;;;26.40;36.40;;;;;;2256186;61;20363;-57
2021/08/06 02:26:24;0.00;0.00;0.62;0.00;0.00;0.62;3.70;3.40;;;26.40;36.40;;;;;;2256169;61;20435;-57
2021/08/06 02:28:57;0.00;0.00;0.62;0.00;0.00;0.62;3.33;3.10;;;26.40;36.50;;;;;;2256548;61;20707;-57
2021/08/06 02:31:27;0.00;0.00;0.62;0.00;0.00;0.62;4.43;4.10;;;26.40;36.50;;;;;;2256060;61;20376;-58
2021/08/06 02:33:57;0.00;0.00;0.62;0.00;0.00;0.62;4.10;3.80;;;26.40;36.40;;;;;;2256257;61;20391;-57
2021/08/06 02:36:23;0.00;0.00;0.62;0.00;0.00;0.62;4.00;3.70;;;26.40;36.50;;;;;;2253805;61;20591;-54
2021/08/06 02:38:50;0.00;0.00;0.62;0.00;0.00;0.62;4.77;4.40;;;26.40;36.40;;;;;;2255256;61;20357;-57
2021/08/06 02:41:19;0.00;0.00;0.62;0.00;0.00;0.62;4.60;4.20;;;26.40;36.30;;;;;;2251787;61;20376;-55
2021/08/06 02:43:46;0.00;0.00;0.62;0.00;0.00;0.62;3.87;3.57;;;26.30;36.30;;;;;;2256100;61;20404;-56
2021/08/06 02:46:15;0.00;0.00;0.62;0.00;0.00;0.62;4.07;3.77;;;26.30;36.30;;;;;;2252063;61;20363;-55
2021/08/06 02:48:41;0.00;0.00;0.62;0.00;0.00;0.62;4.37;4.00;;;26.30;36.40;;;;;;2254933;61;20443;-56
2021/08/06 02:51:08;0.00;0.00;0.62;0.00;0.00;0.62;3.90;3.60;;;26.30;36.30;;;;;;2251486;61;20659;-54
2021/08/06 02:53:34;0.00;0.00;0.62;0.00;0.00;0.62;4.10;3.80;;;26.30;36.40;;;;;;2255339;61;20693;-56
2021/08/06 02:56:01;0.00;0.00;0.62;0.00;0.00;0.62;3.83;3.53;;;26.30;36.40;;;;;;2251714;61;20399;-55
2021/08/06 02:58:32;0.00;0.00;0.62;0.00;0.00;0.62;4.13;3.30;;;26.20;36.30;;;;;;2255403;61;20375;-56
2021/08/06 03:00:58;0.00;0.00;0.62;0.00;0.00;0.62;4.17;3.77;;;26.30;36.50;;;;;;2256107;61;20647;-54
2021/08/06 03:03:26;0.00;0.00;0.62;0.00;0.00;0.62;4.00;3.70;;;26.20;36.40;;;;;;2253293;61;20751;-54
2021/08/06 03:05:52;0.00;0.00;0.62;0.00;0.00;0.62;4.40;4.00;;;26.20;36.40;;;;;;2253536;61;20555;-54
2021/08/06 03:08:19;0.00;0.00;0.62;0.00;0.00;0.62;4.57;4.20;;;26.20;36.40;;;;;;2253312;61;20403;-54
2021/08/06 03:10:45;0.00;0.00;0.62;0.00;0.00;0.62;6.30;4.17;;;26.20;36.30;;;;;;2253001;61;20395;-55
2021/08/06 03:13:12;0.00;0.00;0.62;0.00;0.00;0.62;4.37;3.97;;;26.20;36.30;;;;;;2256426;61;20689;-56
2021/08/06 03:15:38;0.00;0.00;0.62;0.00;0.00;0.62;4.47;4.07;;;26.20;36.30;;;;;;2256092;61;20484;-54
2021/08/06 03:18:05;0.00;0.00;0.62;0.00;0.00;0.62;3.93;3.63;;;26.20;36.30;;;;;;2253252;61;20359;-54
2021/08/06 03:20:34;0.00;0.00;0.62;0.00;0.00;0.62;6.57;3.90;;;26.20;36.40;;;;;;2256275;61;20728;-56
2021/08/06 03:23:05;0.00;0.00;0.62;0.00;0.00;0.62;3.90;3.60;;;26.10;36.30;;;;;;2256071;61;20361;-57
2021/08/06 03:25:32;0.00;0.00;0.62;0.00;0.00;0.62;4.43;4.03;;;26.10;36.30;;;;;;2255877;61;20349;-54
2021/08/06 03:27:59;0.00;0.00;0.62;0.00;0.00;0.62;3.93;3.30;;;26.10;36.40;;;;;;2256318;61;20701;-57
2021/08/06 03:30:28;0.00;0.00;0.62;0.00;0.00;0.62;3.90;3.60;;;26.10;36.40;;;;;;2255947;61;20608;-56
2021/08/06 03:32:55;0.00;0.00;0.62;0.00;0.00;0.62;4.23;3.83;;;26.10;36.40;;;;;;2256044;61;20610;-54
2021/08/06 03:35:22;0.00;0.00;0.62;0.00;0.00;0.62;5.53;3.40;;;26.10;36.40;;;;;;2256398;61;20383;-53
2021/08/06 03:37:51;0.00;0.00;0.62;0.00;0.00;0.62;4.00;3.70;;;26.10;36.40;;;;;;2256043;61;20359;-57
2021/08/06 03:40:18;0.00;0.00;0.62;0.00;0.00;0.62;4.13;3.83;;;26.10;36.40;;;;;;2252979;61;20381;-55
2021/08/06 03:42:45;0.00;0.00;0.62;0.00;0.00;0.62;3.93;3.63;;;26.00;36.30;;;;;;2253522;61;20427;-54
2021/08/06 03:45:12;0.00;0.00;0.62;0.00;0.00;0.62;4.10;3.80;;;26.00;36.30;;;;;;2255946;61;20352;-57
2021/08/06 03:47:39;0.00;0.00;0.62;0.00;0.00;0.62;4.00;3.60;;;26.10;36.40;;;;;;2255994;61;20435;-53
2021/08/06 03:50:09;0.00;0.00;0.62;0.00;0.00;0.62;3.80;3.50;;;26.00;36.30;;;;;;2256151;61;20384;-55
2021/08/06 03:52:37;0.00;0.00;0.62;0.00;0.00;0.62;4.10;3.80;;;26.00;36.30;;;;;;2256020;61;20353;-56
2021/08/06 03:55:06;0.00;0.00;0.62;0.00;0.00;0.62;4.73;4.30;;;26.00;36.30;;;;;;2255992;61;20356;-56
2021/08/06 03:57:33;0.00;0.00;0.62;0.00;0.00;0.62;4.40;4.00;;;26.00;36.30;;;;;;2256337;61;20684;-55
2021/08/06 04:00:00;0.00;0.00;0.62;0.00;0.00;0.62;4.90;4.50;;;26.00;36.30;;;;;;2252531;61;20373;-54
2021/08/06 04:02:26;0.00;0.00;0.62;0.00;0.00;0.62;4.37;3.97;;;26.00;36.30;;;;;;2255921;61;20360;-54
2021/08/06 04:04:53;0.00;0.00;0.62;0.00;0.00;0.62;4.93;4.53;;;26.00;36.30;;;;;;2256191;61;20361;-56
2021/08/06 04:07:19;0.00;0.00;0.62;0.00;0.00;0.62;4.67;4.27;;;25.90;36.30;;;;;;2253018;61;20364;-58
2021/08/06 04:09:46;0.00;0.00;0.62;0.00;0.00;0.62;4.60;4.20;;;25.90;36.20;;;;;;2255371;61;20376;-54
2021/08/06 04:12:14;0.00;0.00;0.62;0.00;0.00;0.62;4.27;3.97;;;25.90;36.40;;;;;;2256183;61;20256;-52
2021/08/06 04:14:40;0.00;0.00;0.62;0.00;0.00;0.62;4.40;4.00;;;25.90;36.30;;;;;;2253123;61;20364;-55
2021/08/06 04:17:07;0.00;0.00;0.62;0.00;0.00;0.62;4.93;4.53;;;25.90;36.30;;;;;;2255874;61;20349;-56
2021/08/06 04:19:33;0.00;0.00;0.62;0.00;0.00;0.62;4.57;4.17;;;25.90;36.30;;;;;;2256116;61;20427;-57
2021/08/06 04:22:00;0.00;0.00;0.62;0.00;0.00;0.62;4.47;3.90;;;25.90;36.30;;;;;;2253492;61;20364;-56
2021/08/06 04:24:27;0.00;0.00;0.62;0.00;0.00;0.62;4.00;3.70;;;25.90;36.30;;;;;;2253652;61;20357;-56
2021/08/06 04:26:53;0.00;0.00;0.62;0.00;0.00;0.62;4.03;3.73;;;25.90;36.30;;;;;;2254079;61;20360;-55
2021/08/06 04:29:21;0.00;0.00;0.62;0.00;0.00;0.62;5.70;5.00;;;25.90;36.30;;;;;;2256452;61;20697;-53
2021/08/06 04:31:48;0.00;0.00;0.62;0.00;0.00;0.62;4.80;4.40;;;25.80;36.20;;;;;;2256519;61;20384;-57
2021/08/06 04:34:14;0.00;0.00;0.62;0.00;0.00;0.62;5.27;4.87;;;25.80;36.20;;;;;;2254114;61;20361;-57
2021/08/06 04:36:41;0.00;0.00;0.62;0.00;0.00;0.62;5.20;4.70;;;25.80;36.30;;;;;;2256543;61;20364;-56
2021/08/06 04:39:07;0.00;0.00;0.62;0.00;0.00;0.62;5.03;4.63;;;25.80;36.20;;;;;;2253612;61;20360;-52
2021/08/06 04:41:34;0.00;0.00;0.62;0.00;0.00;0.62;4.37;3.97;;;25.80;36.20;;;;;;2256873;61;20376;-52
2021/08/06 04:44:00;0.00;0.00;0.62;0.00;0.00;0.62;4.50;4.10;;;25.70;36.20;;;;;;2253699;61;20410;-57
2021/08/06 04:46:28;0.00;0.00;0.62;0.00;0.00;0.62;5.07;4.60;;;25.70;36.30;;;;;;2256383;61;20402;-55
2021/08/06 04:48:55;0.00;0.00;0.62;0.00;0.00;0.62;4.83;4.43;;;25.70;36.30;;;;;;2253981;61;20375;-55
2021/08/06 04:51:21;0.00;0.00;0.62;0.00;0.00;0.62;5.47;4.50;;;25.70;36.40;;;;;;2256470;61;20396;-54
2021/08/06 04:53:48;0.00;0.00;0.62;0.00;0.00;0.62;5.23;4.77;;;25.70;36.40;;;;;;2253766;61;20363;-52
2021/08/06 04:56:15;0.00;0.00;0.62;0.00;0.00;0.62;5.63;5.20;;;25.70;36.40;;;;;;2254057;61;20360;-53
2021/08/06 04:58:42;0.00;0.00;0.62;0.00;0.00;0.62;4.67;4.27;;;25.70;36.50;;;;;;2253624;61;20367;-55
2021/08/06 05:01:08;0.00;0.00;0.62;0.00;0.00;0.62;6.50;4.70;;;25.60;36.50;;;;;;2253617;61;20373;-54
2021/08/06 05:03:36;0.00;0.00;0.62;0.00;0.00;0.62;5.43;4.93;;;25.60;36.50;;;;;;2253952;61;20357;-58
2021/08/06 05:06:03;0.00;0.00;0.62;0.00;0.00;0.62;6.47;5.03;;;25.60;36.50;;;;;;2256379;61;20554;-55
2021/08/06 05:08:30;0.00;0.00;0.62;0.00;0.00;0.62;5.60;5.07;;;25.60;36.60;;;;;;2256281;61;20357;-54
2021/08/06 05:10:57;0.00;0.00;0.62;0.00;0.00;0.62;7.90;5.10;;;25.50;36.60;;;;;;2256728;61;20460;-54
2021/08/06 05:13:23;0.00;0.00;0.62;0.00;0.00;0.62;5.03;4.63;;;25.50;36.60;;;;;;2256466;61;20367;-51
2021/08/06 05:15:51;0.00;0.00;0.62;0.00;0.00;0.62;6.03;4.63;;;25.50;36.70;;;;;;2256476;61;20436;-56
2021/08/06 05:18:18;0.00;0.00;0.62;0.00;0.00;0.62;5.83;5.33;;;25.50;36.70;;;;;;2256727;61;20348;-55
2021/08/06 05:20:46;0.00;0.00;0.62;0.00;0.00;0.62;5.40;4.90;;;25.50;36.70;;;;;;2256275;61;20460;-58
2021/08/06 05:23:13;0.00;0.00;0.62;0.00;0.00;0.62;5.13;4.70;;;25.50;36.70;;;;;;2256328;61;20360;-57
2021/08/06 05:25:40;0.00;0.00;0.62;0.00;0.00;0.62;5.17;4.77;;;25.50;36.80;;;;;;2256620;61;20360;-54
2021/08/06 05:28:09;0.00;0.00;0.62;0.00;0.00;0.62;6.40;5.70;;;25.40;36.70;;;;;;2256371;61;20403;-57
2021/08/06 05:30:36;0.00;0.00;0.62;0.00;0.00;0.62;5.10;4.60;;;25.40;36.80;;;;;;2255806;61;20740;-56
2021/08/06 05:33:04;0.00;0.00;0.62;0.00;0.00;0.62;4.60;4.30;;;25.40;36.90;;;;;;2256560;61;20361;-56
2021/08/06 05:35:31;0.00;0.00;0.62;0.00;0.00;0.62;4.87;4.47;;;25.40;36.90;;;;;;2256241;61;20357;-58
2021/08/06 05:38:02;0.00;0.00;0.62;0.00;0.00;0.62;5.17;4.70;;;25.40;37.00;;;;;;2256214;61;20379;-55
2021/08/06 05:40:28;0.00;0.00;0.62;0.00;0.00;0.62;5.80;4.17;;;25.40;37.10;;;;;;2256222;61;20381;-56
2021/08/06 05:42:56;0.00;0.00;0.62;0.00;0.00;0.62;4.90;4.50;;;25.40;37.80;;;;;;2256270;61;20357;-56
2021/08/06 05:45:26;0.00;0.00;0.62;0.00;0.00;0.62;4.87;4.47;;;25.40;37.10;;;;;;2255165;61;20715;-54
2021/08/06 05:47:55;0.00;0.00;0.62;0.00;0.00;0.62;4.17;3.77;;;25.40;37.10;;;;;;2256600;61;20399;-57
2021/08/06 05:50:29;0.00;0.00;0.62;0.00;0.00;0.62;5.23;4.73;;;25.40;37.20;;;;;;2253334;61;20415;-54
2021/08/06 05:52:56;0.00;0.00;0.62;0.00;0.00;0.62;4.87;4.47;;;25.30;37.20;;;;;;2256082;61;20384;-58
2021/08/06 05:55:25;0.00;0.00;0.62;0.00;0.00;0.62;4.60;4.20;;;25.40;37.30;;;;;;2256461;61;20383;-59
2021/08/06 05:58:02;0.00;0.00;0.62;0.00;0.00;0.62;4.40;4.00;;;25.40;37.30;;;;;;2253466;61;20449;-59
2021/08/06 06:00:31;0.00;0.00;0.62;0.00;0.00;0.62;4.13;3.73;;;25.30;37.40;;;;;;2253310;61;20383;-58
2021/08/06 06:03:08;0.00;0.00;0.62;0.00;0.00;0.62;4.20;3.80;;;25.40;37.50;;;;;;2253698;61;20364;-59
2021/08/06 06:05:55;0.00;0.00;0.62;0.00;0.00;0.62;4.17;3.77;;;25.40;37.50;;;;;;2256151;61;20349;-58
2021/08/06 06:08:22;0.00;0.00;0.62;0.00;0.00;0.62;5.30;3.63;;;25.40;37.50;;;;;;2252923;61;20373;-58
2021/08/06 06:10:50;0.00;0.00;0.62;0.00;0.00;0.62;3.77;3.50;;;25.40;37.60;;;;;;2256218;61;20467;-59
2021/08/06 06:13:17;0.00;0.00;0.62;0.00;0.00;0.62;4.10;3.63;;;25.50;37.60;;;;;;2256165;61;20356;-56
2021/08/06 06:15:44;0.00;0.00;0.62;0.00;0.00;0.62;4.53;4.03;;;25.50;37.60;;;;;;2256162;61;20396;-58
2021/08/06 06:18:11;0.00;0.00;0.62;0.00;0.00;0.62;4.60;3.53;;;25.50;37.60;;;;;;2256460;61;20664;-58
2021/08/06 06:20:39;0.00;0.00;0.62;0.00;0.00;0.62;5.13;4.03;;;25.50;37.60;;;;;;2255908;61;20392;-57
2021/08/06 06:23:06;0.00;0.00;0.62;0.00;0.00;0.62;7.83;4.30;;;25.50;37.70;;;;;;2256084;61;20384;-57
2021/08/06 06:25:33;0.00;0.00;0.62;0.00;0.00;0.62;4.40;4.00;;;25.60;37.70;;;;;;2256432;61;20706;-57
2021/08/06 06:28:04;0.00;0.00;0.62;0.00;0.00;0.62;5.17;4.77;;;25.60;37.60;;;;;;2256235;61;20368;-56
2021/08/06 06:30:45;0.00;0.00;0.62;0.00;0.00;0.62;5.67;5.17;;;25.60;37.60;;;;;;2256013;61;22341;-58
2021/08/06 06:33:13;0.00;0.00;0.62;0.00;0.00;0.62;4.50;4.10;;;25.60;37.70;;;;;;2256503;61;20353;-56
2021/08/06 06:35:41;0.00;0.00;0.62;0.00;0.00;0.62;4.83;4.43;;;25.60;37.70;;;;;;2256264;61;20361;-56
2021/08/06 06:38:08;0.00;0.00;0.62;0.00;0.00;0.62;4.00;3.70;;;25.50;37.60;;;;;;2256041;61;20348;-59
2021/08/06 06:40:35;0.00;0.00;0.62;0.00;0.00;0.62;4.47;4.07;;;25.50;37.70;;;;;;2251887;61;20732;-54
2021/08/06 06:43:09;0.00;0.00;0.62;0.00;0.00;0.62;5.60;4.17;;;25.50;37.70;;;;;;2256171;61;20353;-58
2021/08/06 06:45:36;0.00;0.00;0.62;0.00;0.00;0.62;3.40;2.80;;;25.50;37.80;;;;;;2253117;61;20361;-53
2021/08/06 06:48:08;0.00;0.00;0.62;0.00;0.00;0.62;3.90;3.60;;;25.50;37.90;;;;;;2256454;61;20379;-57
2021/08/06 06:50:41;0.00;0.00;0.62;0.00;0.00;0.62;3.77;3.47;;;25.50;38.00;;;;;;2256051;61;20421;-55
2021/08/06 06:53:12;0.00;0.00;0.62;0.00;0.00;0.62;3.87;3.57;;;25.50;37.90;;;;;;2249588;61;20372;-59
2021/08/06 06:55:39;0.00;0.00;0.62;0.00;0.00;0.62;3.63;3.33;;;25.50;37.90;;;;;;2256382;61;20360;-56
2021/08/06 06:58:10;0.00;0.00;0.62;0.00;0.00;0.62;3.93;3.63;;;25.60;38.00;;;;;;2252876;61;20357;-56
2021/08/06 07:00:39;0.00;0.00;0.62;0.00;0.00;0.62;3.83;3.53;;;25.60;38.00;;;;;;2255973;61;20368;-58
2021/08/06 07:03:11;0.00;0.00;0.62;0.00;0.00;0.62;3.53;3.23;;;25.60;37.90;;;;;;2253050;61;20357;-56
2021/08/06 07:05:38;0.00;0.00;0.62;0.00;0.00;0.62;3.57;3.27;;;25.70;38.00;;;;;;2253288;61;20428;-58
2021/08/06 07:08:05;0.00;0.00;0.62;0.00;0.00;0.62;3.40;3.10;;;25.60;38.00;;;;;;2253318;61;20392;-57
2021/08/06 07:10:36;0.00;0.00;0.62;0.00;0.00;0.62;3.97;3.10;;;25.70;38.20;;;;;;2252906;61;20380;-58
2021/08/06 07:13:05;0.00;0.00;0.62;0.00;0.00;0.62;3.90;3.60;;;25.70;38.10;;;;;;2256193;61;20603;-58
2021/08/06 07:15:33;0.00;0.00;0.62;0.00;0.00;0.62;3.47;3.10;;;25.70;38.10;;;;;;2256083;61;20367;-57
2021/08/06 07:18:00;0.00;0.00;0.62;0.00;0.00;0.62;5.93;3.90;;;25.70;38.10;;;;;;2256401;61;20415;-54
2021/08/06 07:20:28;0.00;0.00;0.62;0.00;0.00;0.62;3.40;3.10;;;25.70;38.10;;;;;;2255964;61;20380;-58
2021/08/06 07:22:56;0.00;0.00;0.62;0.00;0.00;0.62;4.03;3.60;;;25.80;38.30;;;;;;2255967;61;20602;-59
2021/08/06 07:25:23;0.00;0.00;0.62;0.00;0.00;0.62;4.23;3.73;;;25.80;38.20;;;;;;2252995;61;20454;-59
2021/08/06 07:27:52;0.00;0.00;0.62;0.00;0.00;0.62;2.93;2.73;;;25.80;38.20;;;;;;2256065;61;20360;-58
2021/08/06 07:30:20;0.00;0.00;0.62;0.00;0.00;0.62;3.43;3.07;;;25.80;38.20;;;;;;2255842;61;20574;-55
2021/08/06 07:32:48;0.00;0.00;0.62;0.00;0.00;0.62;4.00;3.50;;;25.90;38.40;;;;;;2256328;61;20676;-58
2021/08/06 07:35:16;0.00;0.00;0.62;0.00;0.00;0.62;3.70;3.40;;;25.90;38.30;;;;;;2256157;61;20502;-58
2021/08/06 07:37:43;0.00;0.00;0.62;0.00;0.00;0.62;3.07;2.87;;;25.90;38.40;;;;;;2255888;61;20371;-59
2021/08/06 07:40:12;0.00;0.00;0.62;0.00;0.00;0.62;3.60;3.30;;;25.90;38.40;;;;;;2252927;61;20512;-54
2021/08/06 07:42:39;0.00;0.00;0.62;0.00;0.00;0.62;3.20;2.90;;;26.00;38.40;;;;;;2256001;61;20394;-59
2021/08/06 07:45:08;0.00;0.00;0.62;0.00;0.00;0.62;3.23;2.97;;;26.00;38.30;;;;;;2255848;61;20625;-59
2021/08/06 07:47:35;0.00;0.00;0.62;0.00;0.00;0.62;3.50;3.20;;;26.00;38.30;;;;;;2253500;61;20375;-59
2021/08/06 07:50:04;0.00;0.00;0.62;0.00;0.00;0.62;3.47;3.10;;;26.00;38.40;;;;;;2256025;61;20598;-55
2021/08/06 07:52:31;0.00;0.00;0.62;0.00;0.00;0.62;3.70;3.40;;;26.00;38.40;;;;;;2255859;61;20451;-59
2021/08/06 07:54:58;0.00;0.00;0.62;0.00;0.00;0.62;3.50;3.20;;;26.00;38.30;;;;;;2253466;61;20361;-55
2021/08/06 07:57:25;0.00;0.00;0.62;0.00;0.00;0.62;5.50;3.23;;;26.10;38.40;;;;;;2256004;61;20384;-55
2021/08/06 07:59:52;0.00;0.00;0.62;0.00;0.00;0.62;3.87;3.47;;;26.10;38.40;;;;;;2255808;61;20380;-56
2021/08/06 08:02:21;0.00;0.00;0.62;0.00;0.00;0.62;3.47;3.17;;;26.10;38.40;;;;;;2253243;61;20349;-60
2021/08/06 08:04:48;0.00;0.00;0.62;0.00;0.00;0.62;3.20;3.00;;;26.10;38.40;;;;;;2252545;61;20408;-58
2021/08/06 08:07:17;0.00;0.00;0.62;0.00;0.00;0.62;3.67;3.37;;;26.10;38.50;;;;;;2255836;61;20656;-55
2021/08/06 08:09:44;0.00;0.00;0.62;0.00;0.00;0.62;3.27;2.97;;;26.20;38.50;;;;;;2255977;61;20385;-56
2021/08/06 08:12:11;0.00;0.00;0.62;0.00;0.00;0.62;3.10;2.80;;;26.20;38.50;;;;;;2255833;61;20451;-55
2021/08/06 08:14:38;0.00;0.00;0.62;0.00;0.00;0.62;3.30;3.00;;;26.20;38.60;;;;;;2255922;61;20389;-58
2021/08/06 08:17:04;0.00;0.00;0.62;0.00;0.00;0.62;3.60;3.20;;;26.20;38.70;;;;;;2253404;61;20720;-53
2021/08/06 08:19:31;0.00;0.00;0.62;0.00;0.00;0.62;3.50;3.20;;;26.20;38.70;;;;;;2252912;61;20353;-57
2021/08/06 08:21:58;0.00;0.00;0.62;0.00;0.00;0.62;3.27;2.97;;;26.30;38.70;;;;;;2255827;61;20387;-56
2021/08/06 08:24:26;0.00;0.00;0.62;0.00;0.00;0.62;3.57;3.27;;;26.30;38.70;;;;;;2253343;61;20388;-59
2021/08/06 08:26:53;0.00;0.00;0.62;0.00;0.00;0.62;3.70;3.40;;;26.30;38.70;;;;;;2253054;61;20365;-55
2021/08/06 08:29:20;0.00;0.00;0.62;0.00;0.00;0.62;3.40;3.10;;;26.30;38.80;;;;;;2252458;61;20357;-54
2021/08/06 08:31:47;0.00;0.00;0.62;0.00;0.00;0.62;3.33;3.03;;;26.30;38.90;;;;;;2256125;61;20840;-54
2021/08/06 08:34:14;0.00;0.00;0.62;0.00;0.00;0.62;3.30;3.00;;;26.30;38.80;;;;;;2253131;61;20387;-59
2021/08/06 08:36:40;0.00;0.00;0.62;0.00;0.00;0.62;3.50;3.20;;;26.40;38.90;;;;;;2255856;61;20357;-57
2021/08/06 08:39:07;0.00;0.00;0.62;0.00;0.00;0.62;3.30;3.00;;;26.40;38.90;;;;;;2253252;61;20380;-55
2021/08/06 08:41:38;0.00;0.00;0.62;0.00;0.00;0.62;4.00;3.20;;;26.40;38.90;;;;;;2255860;61;20412;-56
2021/08/06 08:44:05;0.00;0.00;0.62;0.00;0.00;0.62;3.60;3.30;;;26.50;39.00;;;;;;2252527;61;20361;-58
2021/08/06 08:46:36;0.00;0.00;0.62;0.00;0.00;0.62;3.50;3.20;;;26.50;38.90;;;;;;2253260;61;20578;-58
2021/08/06 08:49:03;0.00;0.00;0.62;0.00;0.00;0.62;3.23;2.93;;;26.50;38.90;;;;;;2252531;61;20395;-58
2021/08/06 08:51:34;0.00;0.00;0.62;0.00;0.00;0.62;3.10;2.90;;;26.50;38.80;;;;;;2255714;61;20388;-57
2021/08/06 08:54:02;0.00;0.00;0.62;0.00;0.00;0.62;3.23;2.93;;;26.50;38.80;;;;;;2256158;61;20442;-58
2021/08/06 08:56:31;0.00;0.00;0.62;0.00;0.00;0.62;4.03;3.70;;;26.50;38.80;;;;;;2252584;61;20589;-59
2021/08/06 08:58:59;0.00;0.00;0.62;0.00;0.00;0.62;3.00;2.80;;;26.60;38.90;;;;;;2255617;61;20668;-59
2021/08/06 09:01:26;0.00;0.00;0.62;0.00;0.00;0.62;2.80;2.60;;;26.60;38.90;;;;;;2256137;61;20801;-57
2021/08/06 09:03:54;0.00;0.00;0.62;0.00;0.00;0.62;3.80;3.50;;;26.60;38.90;;;;;;2255787;61;20431;-54
2021/08/06 09:06:41;0.00;0.00;0.62;0.00;0.00;0.62;3.27;2.97;;;26.60;38.80;;;;;;2255739;61;20700;-57
2021/08/06 09:09:14;0.00;0.00;0.62;0.00;0.00;0.62;4.97;3.60;;;26.70;38.90;;;;;;2256292;61;20379;-55
2021/08/06 09:12:07;0.00;0.00;0.62;0.00;0.00;0.62;3.63;3.33;;;26.70;38.90;;;;;;2253621;61;20385;-50
2021/08/06 09:14:55;0.00;0.00;0.62;0.00;0.00;0.62;5.00;4.50;;;26.70;38.90;;;;;;2252281;61;20377;-56
2021/08/06 09:17:21;0.00;0.00;0.62;0.00;0.00;0.62;5.13;4.67;;;26.70;39.00;;;;;;2253556;61;20372;-55
2021/08/06 09:19:56;0.00;0.00;0.62;0.00;0.00;0.62;4.20;3.80;;;26.70;39.10;;;;;;2253438;61;20420;-55
2021/08/06 09:22:27;0.00;0.00;0.62;0.00;0.00;0.62;4.40;3.63;;;26.70;39.10;;;;;;2256787;61;20359;-55
2021/08/06 09:24:59;0.00;0.00;0.62;0.00;0.00;0.62;4.57;3.87;;;26.70;39.20;;;;;;2253506;61;20357;-54
2021/08/06 09:27:28;0.00;0.00;0.62;0.00;0.00;0.62;4.63;3.87;;;26.70;39.50;;;;;;2253567;61;20579;-55
2021/08/06 09:29:58;0.00;0.00;0.62;0.00;0.00;0.62;3.77;3.37;;;26.70;39.20;;;;;;2253795;61;20385;-54
2021/08/06 09:32:25;0.00;0.00;0.62;0.00;0.00;0.62;3.63;3.33;;;26.70;39.20;;;;;;2253507;61;20379;-55
2021/08/06 09:34:52;0.00;0.00;0.62;0.00;0.00;0.62;3.70;3.40;;;26.70;39.10;;;;;;2253643;61;20709;-61
2021/08/06 09:37:21;0.00;0.00;0.62;0.00;0.00;0.62;4.20;3.53;;;26.70;39.10;;;;;;2253901;61;20418;-55
2021/08/06 09:39:49;0.00;0.00;0.62;0.00;0.00;0.62;4.13;3.80;;;26.70;39.10;;;;;;2253420;61;20383;-57
2021/08/06 09:42:21;0.00;0.00;0.62;0.00;0.00;0.62;5.00;3.77;;;26.70;39.10;;;;;;2253550;61;20696;-57
2021/08/06 09:45:00;0.00;0.00;0.62;0.00;0.00;0.62;3.77;3.47;;;26.70;39.00;;;;;;2253749;61;20357;-56
2021/08/06 09:47:28;0.00;0.00;0.62;0.00;0.00;0.62;4.13;3.60;;;26.70;39.00;;;;;;2253565;61;20357;-55
2021/08/06 09:49:58;0.00;0.00;0.62;0.00;0.00;0.62;3.90;3.50;;;26.80;39.00;;;;;;2253414;61;20460;-55